Aul Turara Ryskulova, Kazakhstan
Current Conditions -  °F | °C
As of 3:30 AM on Saturday 01 Nov 2014 (Local Time) from UAII Reporting Station
Haze Haze  
Wind Chill: 28°   Ceiling: Unl
Heat Index: 34°   Visibility: 1.8mi
Dew Point: 28°   Wind: 7mph
Humidity: 81%   Direction: 140°SE
Pressure: 30.12"   Gusts: NA
Location:  42.48°N, 70.3°E
Report Text: UAII 312130Z 14003MPS 3000 BR NSC 01/M02 Q1020 R28/0///70 TEMPO2000 BR FU RMK QFE728/0970
Loading
Personal Weather Stations






























Interactive Weather Map
Tropical Storm Tracking
New forecast layout! Learn more

10-Day Weather Forecast

Advertisements
Track Severe Weather on mobile